Time;durP1;ratioP1;P1;durP2;ratioP2;P2;SDS_P1;SDS_P2;PMS_P1;PMS_P2;Temp;Humidity;BMP_temperature;BMP_pressure;BME280_temperature;BME280_humidity;BME280_pressure;Samples;Min_cycle;Max_cycle;Signal;HPM_P1;HPM_P2
2022/03/06 00:02:15;;;;;;;81.88;45.63;;;;;;;;;;4979845;28;20184;-83
2022/03/06 00:04:41;;;;;;;84.65;46.17;;;;;;;;;;4981071;28;20195;-82
2022/03/06 00:07:07;;;;;;;84.35;48.83;;;;;;;;;;4979782;28;20194;-83
2022/03/06 00:09:33;;;;;;;89.95;49.65;;;;;;;;;;4964036;28;20626;-83
2022/03/06 00:11:59;;;;;;;83.55;48.25;;;;;;;;;;5001498;28;20230;-82
2022/03/06 00:14:25;;;;;;;92.80;46.03;;;;;;;;;;4971496;28;20604;-82
2022/03/06 00:16:54;;;;;;;90.63;48.13;;;;;;;;;;4977800;28;20446;-82
2022/03/06 00:19:20;;;;;;;97.82;46.85;;;;;;;;;;4977662;28;20204;-82
2022/03/06 00:21:47;;;;;;;93.18;49.42;;;;;;;;;;4964953;28;20177;-82
2022/03/06 00:24:13;;;;;;;97.72;47.60;;;;;;;;;;4977092;28;20164;-83
2022/03/06 00:26:39;;;;;;;79.95;44.95;;;;;;;;;;4979145;28;20188;-82
2022/03/06 00:29:06;;;;;;;90.30;49.75;;;;;;;;;;4978243;28;20243;-82
2022/03/06 00:31:32;;;;;;;88.78;45.13;;;;;;;;;;4980797;28;20219;-82
2022/03/06 00:33:58;;;;;;;86.70;45.67;;;;;;;;;;4979288;28;20179;-82
2022/03/06 00:36:24;;;;;;;91.35;46.78;;;;;;;;;;4981263;28;20603;-82
2022/03/06 00:38:50;;;;;;;86.25;44.40;;;;;;;;;;4971373;28;20227;-82
2022/03/06 00:41:16;;;;;;;86.30;44.40;;;;;;;;;;4971956;28;20184;-82
2022/03/06 00:43:43;;;;;;;80.10;45.50;;;;;;;;;;4981444;28;20199;-82
2022/03/06 00:46:09;;;;;;;87.55;45.22;;;;;;;;;;4981684;28;20180;-82
2022/03/06 00:48:35;;;;;;;82.97;44.97;;;;;;;;;;4979567;28;20267;-82
2022/03/06 00:51:01;;;;;;;77.30;40.50;;;;;;;;;;4982832;28;20183;-82
2022/03/06 00:53:27;;;;;;;87.68;47.75;;;;;;;;;;4982079;28;20179;-82
2022/03/06 00:55:53;;;;;;;84.70;42.67;;;;;;;;;;4983449;28;20654;-81
2022/03/06 00:58:19;;;;;;;87.28;45.00;;;;;;;;;;4981116;28;20184;-81
2022/03/06 01:00:47;;;;;;;86.45;45.35;;;;;;;;;;4967305;28;20246;-82
2022/03/06 01:03:15;;;;;;;89.45;46.72;;;;;;;;;;4971186;28;20177;-82
2022/03/06 01:05:41;;;;;;;80.97;44.55;;;;;;;;;;4979408;28;20191;-82
2022/03/06 01:08:07;;;;;;;86.03;43.45;;;;;;;;;;4996687;28;20189;-81
2022/03/06 01:10:34;;;;;;;80.20;45.42;;;;;;;;;;4981356;28;20188;-82
2022/03/06 01:13:00;;;;;;;92.65;44.90;;;;;;;;;;4967697;28;20187;-82
2022/03/06 01:15:26;;;;;;;85.82;45.58;;;;;;;;;;4969055;28;20204;-82
2022/03/06 01:17:52;;;;;;;85.68;42.80;;;;;;;;;;4994231;28;20655;-82
2022/03/06 01:20:19;;;;;;;90.97;43.53;;;;;;;;;;4978187;28;20263;-82
2022/03/06 01:22:45;;;;;;;79.75;44.15;;;;;;;;;;5003260;28;20199;-82
2022/03/06 01:25:11;;;;;;;81.85;42.30;;;;;;;;;;4965744;28;20960;-82
2022/03/06 01:27:37;;;;;;;89.75;43.88;;;;;;;;;;4983090;28;20218;-82
2022/03/06 01:30:05;;;;;;;78.50;42.60;;;;;;;;;;4978447;28;20194;-81
2022/03/06 01:32:32;;;;;;;77.32;41.45;;;;;;;;;;4982312;28;20243;-82
2022/03/06 01:34:58;;;;;;;76.63;41.90;;;;;;;;;;4981376;28;20214;-81
2022/03/06 01:37:24;;;;;;;82.72;43.78;;;;;;;;;;4981472;28;20196;-81
2022/03/06 01:39:50;;;;;;;81.75;41.08;;;;;;;;;;4978861;28;20455;-82
2022/03/06 01:42:16;;;;;;;76.05;42.78;;;;;;;;;;4984226;28;20176;-82
2022/03/06 01:44:44;;;;;;;89.07;47.08;;;;;;;;;;4981290;28;20339;-81
2022/03/06 01:47:10;;;;;;;76.13;41.40;;;;;;;;;;4980567;28;20944;-81
2022/03/06 01:49:36;;;;;;;85.78;40.42;;;;;;;;;;4978382;28;20243;-81
2022/03/06 01:52:02;;;;;;;83.55;45.33;;;;;;;;;;4981397;28;20184;-81
2022/03/06 01:54:28;;;;;;;82.50;45.30;;;;;;;;;;4983334;28;20191;-81
2022/03/06 01:56:54;;;;;;;87.57;44.10;;;;;;;;;;4981285;28;20195;-82
2022/03/06 01:59:23;;;;;;;82.82;42.15;;;;;;;;;;4979848;28;20260;-82
2022/03/06 02:01:49;;;;;;;80.85;41.55;;;;;;;;;;4978488;28;20180;-81
2022/03/06 02:04:15;;;;;;;75.55;42.92;;;;;;;;;;4998050;28;20184;-81
2022/03/06 02:06:42;;;;;;;72.28;41.97;;;;;;;;;;4974741;28;20177;-82
2022/03/06 02:09:08;;;;;;;75.35;41.55;;;;;;;;;;4968312;28;20188;-82
2022/03/06 02:11:35;;;;;;;74.05;39.30;;;;;;;;;;4977484;28;20184;-82
2022/03/06 02:14:02;;;;;;;78.35;44.15;;;;;;;;;;4980456;28;20199;-81
2022/03/06 02:16:31;;;;;;;64.60;38.80;;;;;;;;;;4966035;28;20187;-82
2022/03/06 02:18:57;;;;;;;67.38;40.20;;;;;;;;;;4996485;28;20208;-82
2022/03/06 02:21:23;;;;;;;63.08;36.50;;;;;;;;;;4969204;28;20240;-82
2022/03/06 02:23:49;;;;;;;65.45;37.97;;;;;;;;;;4990253;28;20204;-82
2022/03/06 02:26:15;;;;;;;53.45;35.33;;;;;;;;;;5003490;28;20263;-82
2022/03/06 02:28:42;;;;;;;56.70;36.17;;;;;;;;;;4993768;28;20180;-82
2022/03/06 02:31:09;;;;;;;63.58;33.67;;;;;;;;;;4965390;28;20187;-82
2022/03/06 02:33:35;;;;;;;55.13;33.60;;;;;;;;;;4981683;28;20175;-82
2022/03/06 02:36:01;;;;;;;57.45;35.17;;;;;;;;;;4970684;28;20232;-82
2022/03/06 02:38:27;;;;;;;58.28;34.88;;;;;;;;;;4970408;28;20583;-82
2022/03/06 02:40:54;;;;;;;59.40;34.30;;;;;;;;;;4980668;28;20215;-81
2022/03/06 02:43:20;;;;;;;57.78;34.22;;;;;;;;;;4979370;28;20203;-82
2022/03/06 02:45:46;;;;;;;50.83;30.50;;;;;;;;;;4978393;28;20571;-82
2022/03/06 02:48:12;;;;;;;49.88;32.15;;;;;;;;;;4968993;28;20271;-82
2022/03/06 02:50:39;;;;;;;54.25;34.10;;;;;;;;;;4973623;28;20199;-82
2022/03/06 02:53:07;;;;;;;49.83;33.05;;;;;;;;;;4980452;28;20184;-82
2022/03/06 02:55:33;;;;;;;53.03;32.75;;;;;;;;;;4979433;28;20195;-82
2022/03/06 02:57:59;;;;;;;54.28;34.33;;;;;;;;;;4979265;28;20192;-81
2022/03/06 03:00:25;;;;;;;53.65;31.75;;;;;;;;;;4968271;28;20208;-82
2022/03/06 03:02:52;;;;;;;50.65;32.53;;;;;;;;;;4977490;28;20180;-81
2022/03/06 03:05:18;;;;;;;54.97;33.15;;;;;;;;;;4988085;28;20220;-82
2022/03/06 03:07:45;;;;;;;55.67;34.95;;;;;;;;;;4987537;28;20196;-81
2022/03/06 03:10:13;;;;;;;53.75;34.13;;;;;;;;;;4995806;28;20255;-81
2022/03/06 03:12:39;;;;;;;48.40;33.83;;;;;;;;;;4981717;28;20183;-82
2022/03/06 03:15:06;;;;;;;53.40;34.90;;;;;;;;;;4980002;28;20202;-82
2022/03/06 03:17:32;;;;;;;56.63;33.95;;;;;;;;;;4978497;28;20180;-82
2022/03/06 03:19:58;;;;;;;46.85;30.92;;;;;;;;;;4978377;28;20699;-81
2022/03/06 03:22:24;;;;;;;44.10;30.45;;;;;;;;;;4991403;28;20184;-81
2022/03/06 03:24:50;;;;;;;48.83;29.77;;;;;;;;;;4980100;28;20201;-82
2022/03/06 03:27:16;;;;;;;53.15;31.85;;;;;;;;;;4982492;28;20191;-82
2022/03/06 03:29:42;;;;;;;47.05;30.92;;;;;;;;;;4978929;28;20191;-82
2022/03/06 03:32:08;;;;;;;52.22;31.40;;;;;;;;;;4979214;28;20198;-82
2022/03/06 03:34:34;;;;;;;55.03;33.70;;;;;;;;;;4980058;28;20992;-83
2022/03/06 03:37:00;;;;;;;47.75;30.05;;;;;;;;;;4979096;28;20286;-81
2022/03/06 03:39:27;;;;;;;48.95;33.38;;;;;;;;;;4970673;28;20238;-82
2022/03/06 03:41:53;;;;;;;47.25;29.80;;;;;;;;;;4978552;28;20190;-82
2022/03/06 03:44:19;;;;;;;52.05;31.63;;;;;;;;;;4975829;28;20572;-81
2022/03/06 03:46:45;;;;;;;48.00;29.90;;;;;;;;;;4992364;28;20208;-82
2022/03/06 03:49:11;;;;;;;46.35;31.02;;;;;;;;;;4964900;28;20253;-83
2022/03/06 03:51:38;;;;;;;48.92;32.50;;;;;;;;;;4964218;28;20184;-81
2022/03/06 03:54:04;;;;;;;44.38;27.98;;;;;;;;;;4970095;28;20199;-82
2022/03/06 03:56:30;;;;;;;46.08;30.65;;;;;;;;;;4976411;28;20192;-82
2022/03/06 03:58:56;;;;;;;45.05;30.02;;;;;;;;;;4978343;28;20188;-82
2022/03/06 04:01:22;;;;;;;45.05;29.27;;;;;;;;;;4998086;28;20192;-82
2022/03/06 04:03:48;;;;;;;47.55;28.90;;;;;;;;;;4968575;28;20167;-82
2022/03/06 04:06:14;;;;;;;50.67;29.35;;;;;;;;;;4980112;28;20203;-82
2022/03/06 04:08:40;;;;;;;50.10;29.48;;;;;;;;;;4973068;28;20184;-82
2022/03/06 04:11:06;;;;;;;54.85;32.72;;;;;;;;;;4970346;28;20222;-82
2022/03/06 04:13:32;;;;;;;46.78;29.85;;;;;;;;;;4965615;28;20184;-82
2022/03/06 04:15:58;;;;;;;51.92;31.27;;;;;;;;;;5010119;28;20637;-82
2022/03/06 04:18:24;;;;;;;47.72;31.15;;;;;;;;;;4981069;28;20188;-82
2022/03/06 04:20:50;;;;;;;46.60;30.67;;;;;;;;;;4972690;28;20208;-82
2022/03/06 04:23:16;;;;;;;43.00;30.08;;;;;;;;;;4976978;28;20203;-82
2022/03/06 04:25:42;;;;;;;49.78;30.23;;;;;;;;;;4982160;28;20255;-82
2022/03/06 04:28:08;;;;;;;53.70;30.40;;;;;;;;;;4968308;28;20266;-82
2022/03/06 04:30:34;;;;;;;49.20;29.77;;;;;;;;;;4970800;28;20180;-83
2022/03/06 04:33:00;;;;;;;45.30;29.90;;;;;;;;;;4982183;28;20255;-82
2022/03/06 04:35:27;;;;;;;51.45;29.60;;;;;;;;;;4978187;28;20185;-82
2022/03/06 04:37:53;;;;;;;45.08;28.90;;;;;;;;;;4982420;28;20334;-81
2022/03/06 04:40:19;;;;;;;51.45;29.92;;;;;;;;;;4968399;28;20223;-82
2022/03/06 04:42:45;;;;;;;56.60;31.33;;;;;;;;;;4983001;28;20207;-81
2022/03/06 04:45:11;;;;;;;50.90;29.55;;;;;;;;;;4971203;28;20176;-81
2022/03/06 04:47:37;;;;;;;52.45;31.67;;;;;;;;;;4994697;28;20185;-82
2022/03/06 04:50:03;;;;;;;52.30;29.40;;;;;;;;;;4982733;28;20600;-82
2022/03/06 04:52:29;;;;;;;43.40;31.02;;;;;;;;;;4982036;28;20196;-81
2022/03/06 04:54:55;;;;;;;49.50;30.80;;;;;;;;;;4982413;28;20191;-82
2022/03/06 04:57:21;;;;;;;55.08;31.88;;;;;;;;;;4970438;28;20256;-83
2022/03/06 04:59:47;;;;;;;43.72;27.60;;;;;;;;;;4972764;28;20246;-82
2022/03/06 05:02:13;;;;;;;55.42;30.20;;;;;;;;;;5003171;28;20745;-81
2022/03/06 05:04:39;;;;;;;48.90;31.02;;;;;;;;;;5002535;28;20176;-82
2022/03/06 05:07:06;;;;;;;63.33;32.75;;;;;;;;;;4981735;28;20223;-82
2022/03/06 05:09:32;;;;;;;48.90;32.17;;;;;;;;;;4968079;28;20181;-82
2022/03/06 05:11:57;;;;;;;51.42;31.70;;;;;;;;;;4980168;28;20259;-82
2022/03/06 05:14:24;;;;;;;50.60;30.25;;;;;;;;;;4977131;28;20189;-82
2022/03/06 05:16:49;;;;;;;48.88;30.15;;;;;;;;;;4980262;28;20584;-81
2022/03/06 05:19:15;;;;;;;53.05;29.05;;;;;;;;;;4975602;28;20212;-81
2022/03/06 05:21:41;;;;;;;46.00;28.60;;;;;;;;;;4982820;28;20471;-81
2022/03/06 05:24:07;;;;;;;50.88;30.63;;;;;;;;;;4981743;28;20184;-81
2022/03/06 05:26:33;;;;;;;52.58;33.28;;;;;;;;;;4980866;28;20184;-81
2022/03/06 05:28:59;;;;;;;59.72;32.03;;;;;;;;;;4980285;28;20206;-82
2022/03/06 05:31:25;;;;;;;48.40;30.27;;;;;;;;;;4993978;28;20185;-82
2022/03/06 05:33:51;;;;;;;51.70;30.00;;;;;;;;;;4966135;28;20181;-81
2022/03/06 05:36:18;;;;;;;50.80;28.05;;;;;;;;;;4971326;28;20199;-82
2022/03/06 05:38:44;;;;;;;48.42;31.45;;;;;;;;;;4994258;28;20215;-82
2022/03/06 05:41:10;;;;;;;47.72;29.38;;;;;;;;;;4982510;28;20325;-82
2022/03/06 05:43:36;;;;;;;51.35;30.17;;;;;;;;;;4981589;28;20184;-82
2022/03/06 05:46:02;;;;;;;49.75;30.73;;;;;;;;;;4981642;28;20180;-82
2022/03/06 05:48:28;;;;;;;55.80;30.80;;;;;;;;;;4972902;28;20232;-82
2022/03/06 05:50:54;;;;;;;53.35;30.70;;;;;;;;;;5011950;28;20187;-82
2022/03/06 05:53:20;;;;;;;46.40;29.42;;;;;;;;;;4981355;28;20188;-81
2022/03/06 05:55:47;;;;;;;49.92;31.40;;;;;;;;;;4982928;28;20593;-82
2022/03/06 05:58:13;;;;;;;56.10;31.13;;;;;;;;;;4967027;28;20184;-81
2022/03/06 06:00:39;;;;;;;54.13;29.27;;;;;;;;;;4966764;28;20205;-82
2022/03/06 06:03:05;;;;;;;53.22;30.55;;;;;;;;;;4972770;28;20192;-82
2022/03/06 06:05:31;;;;;;;50.17;30.80;;;;;;;;;;5008307;28;20184;-83
2022/03/06 06:07:57;;;;;;;48.22;30.63;;;;;;;;;;4975251;28;20243;-82
2022/03/06 06:10:23;;;;;;;49.33;29.40;;;;;;;;;;4980932;28;20219;-82
2022/03/06 06:12:49;;;;;;;51.60;30.35;;;;;;;;;;4981069;28;20180;-83
2022/03/06 06:15:15;;;;;;;47.50;29.35;;;;;;;;;;4979924;28;20198;-82
2022/03/06 06:17:41;;;;;;;49.22;29.60;;;;;;;;;;4980321;28;20188;-82
2022/03/06 06:20:08;;;;;;;51.67;30.50;;;;;;;;;;4973857;28;20219;-82
2022/03/06 06:22:34;;;;;;;47.58;28.10;;;;;;;;;;4988057;28;20715;-82
2022/03/06 06:25:00;;;;;;;45.13;28.23;;;;;;;;;;4980242;28;20175;-83
2022/03/06 06:27:27;;;;;;;52.78;30.77;;;;;;;;;;4970194;28;20188;-82
2022/03/06 06:29:53;;;;;;;53.90;29.45;;;;;;;;;;4978197;28;20223;-82
2022/03/06 06:32:19;;;;;;;48.45;29.98;;;;;;;;;;4977465;28;20185;-81
2022/03/06 06:34:45;;;;;;;50.30;30.20;;;;;;;;;;4985153;28;20192;-83
2022/03/06 06:37:11;;;;;;;55.38;31.30;;;;;;;;;;4980652;28;24402;-82
2022/03/06 06:39:37;;;;;;;63.28;35.45;;;;;;;;;;4967124;28;20225;-82
2022/03/06 06:42:04;;;;;;;61.58;34.00;;;;;;;;;;4976453;28;20180;-83
2022/03/06 06:44:30;;;;;;;55.00;32.03;;;;;;;;;;4974332;28;20686;-81
2022/03/06 06:46:56;;;;;;;54.38;31.80;;;;;;;;;;4969806;28;20271;-82
2022/03/06 06:49:22;;;;;;;61.22;34.13;;;;;;;;;;4979405;28;20187;-81
2022/03/06 06:51:48;;;;;;;58.42;34.40;;;;;;;;;;4980564;28;20266;-80
2022/03/06 06:54:15;;;;;;;57.30;33.30;;;;;;;;;;4976272;28;20245;-82
2022/03/06 06:56:41;;;;;;;61.70;32.38;;;;;;;;;;4980296;28;20188;-83
2022/03/06 06:59:07;;;;;;;66.03;33.95;;;;;;;;;;4978974;28;20222;-82
2022/03/06 07:01:33;;;;;;;58.80;32.97;;;;;;;;;;4978038;28;20184;-82
2022/03/06 07:03:59;;;;;;;60.03;35.35;;;;;;;;;;4979277;28;20168;-82
2022/03/06 07:06:25;;;;;;;65.53;33.50;;;;;;;;;;4976797;28;20181;-82
2022/03/06 07:08:51;;;;;;;61.42;34.97;;;;;;;;;;4969997;28;20196;-81
2022/03/06 07:11:17;;;;;;;57.08;35.05;;;;;;;;;;4969669;28;20244;-82
2022/03/06 07:13:43;;;;;;;55.00;33.00;;;;;;;;;;4968194;28;20204;-82
2022/03/06 07:16:09;;;;;;;50.58;32.70;;;;;;;;;;4977952;28;20187;-82
2022/03/06 07:18:35;;;;;;;60.28;35.28;;;;;;;;;;4976202;28;20180;-82
2022/03/06 07:21:02;;;;;;;58.25;33.95;;;;;;;;;;4970140;28;20212;-82
2022/03/06 07:23:29;;;;;;;60.95;35.72;;;;;;;;;;5002569;28;20574;-82
2022/03/06 07:25:55;;;;;;;56.60;33.28;;;;;;;;;;4969443;28;20176;-81
2022/03/06 07:28:21;;;;;;;57.95;31.90;;;;;;;;;;4979278;28;20180;-82
2022/03/06 07:30:48;;;;;;;59.58;34.20;;;;;;;;;;4978638;28;20199;-81
2022/03/06 07:33:14;;;;;;;52.55;34.00;;;;;;;;;;4980860;28;20176;-81
2022/03/06 07:35:40;;;;;;;58.40;33.63;;;;;;;;;;4995985;28;20623;-82
2022/03/06 07:38:06;;;;;;;59.80;34.35;;;;;;;;;;4979127;28;20192;-81
2022/03/06 07:40:33;;;;;;;52.92;32.55;;;;;;;;;;4980446;28;20216;-81
2022/03/06 07:42:59;;;;;;;63.45;33.40;;;;;;;;;;4977823;28;20169;-81
2022/03/06 07:45:25;;;;;;;61.55;34.70;;;;;;;;;;4974349;28;20180;-83
2022/03/06 07:47:51;;;;;;;57.80;35.40;;;;;;;;;;4990559;28;20709;-82
2022/03/06 07:50:17;;;;;;;64.35;34.17;;;;;;;;;;4976288;28;20351;-82
2022/03/06 07:52:43;;;;;;;53.53;31.77;;;;;;;;;;4977706;28;20196;-82
2022/03/06 07:55:09;;;;;;;65.50;36.50;;;;;;;;;;4971463;28;20184;-82
2022/03/06 07:57:36;;;;;;;54.75;32.72;;;;;;;;;;4975310;28;20298;-81
2022/03/06 08:00:03;;;;;;;59.75;34.28;;;;;;;;;;4969592;28;20212;-82
2022/03/06 08:02:29;;;;;;;57.63;34.75;;;;;;;;;;4987324;28;20583;-82
2022/03/06 08:04:55;;;;;;;59.75;35.78;;;;;;;;;;4970428;28;20226;-83
2022/03/06 08:07:21;;;;;;;55.17;33.90;;;;;;;;;;4977847;28;20192;-82
2022/03/06 08:09:47;;;;;;;58.05;34.10;;;;;;;;;;4964916;28;20223;-82
2022/03/06 08:12:13;;;;;;;54.97;31.10;;;;;;;;;;4972921;28;20176;-83
2022/03/06 08:14:39;;;;;;;57.17;34.88;;;;;;;;;;4978348;28;20187;-83
2022/03/06 08:17:05;;;;;;;64.32;35.75;;;;;;;;;;4975720;28;20184;-81
2022/03/06 08:19:31;;;;;;;54.85;34.03;;;;;;;;;;4976942;28;20264;-80
2022/03/06 08:21:57;;;;;;;56.78;31.58;;;;;;;;;;4978190;28;20230;-80
2022/03/06 08:24:26;;;;;;;59.38;33.13;;;;;;;;;;4971415;28;20184;-80
2022/03/06 08:26:52;;;;;;;60.30;34.55;;;;;;;;;;4975264;28;20279;-80
2022/03/06 08:29:18;;;;;;;52.85;32.97;;;;;;;;;;4975462;28;20188;-80
2022/03/06 08:31:44;;;;;;;53.28;35.70;;;;;;;;;;4991213;28;20589;-80
2022/03/06 08:34:10;;;;;;;63.88;34.65;;;;;;;;;;4978446;28;20184;-80
2022/03/06 08:36:36;;;;;;;65.35;35.20;;;;;;;;;;4978969;28;20183;-80
2022/03/06 08:39:03;;;;;;;59.88;36.00;;;;;;;;;;5012656;28;20257;-80
2022/03/06 08:41:29;;;;;;;57.38;34.80;;;;;;;;;;4977186;28;20188;-80
2022/03/06 08:43:55;;;;;;;62.33;34.13;;;;;;;;;;4974984;28;20177;-80
2022/03/06 08:46:21;;;;;;;55.53;35.10;;;;;;;;;;4974957;28;20184;-79
2022/03/06 08:48:47;;;;;;;54.17;32.90;;;;;;;;;;4962380;28;20567;-80
2022/03/06 08:51:16;;;;;;;50.88;30.25;;;;;;;;;;4968365;28;20234;-80
2022/03/06 08:53:42;;;;;;;58.58;32.38;;;;;;;;;;4978730;28;20190;-80
2022/03/06 08:56:08;;;;;;;58.42;32.70;;;;;;;;;;4975299;28;20197;-80
2022/03/06 08:58:35;;;;;;;57.92;34.65;;;;;;;;;;4990821;28;20191;-77
2022/03/06 09:01:01;;;;;;;61.63;35.03;;;;;;;;;;4977709;28;20199;-79
2022/03/06 09:03:27;;;;;;;51.65;31.63;;;;;;;;;;4979527;28;20272;-78
2022/03/06 09:05:53;;;;;;;63.60;33.42;;;;;;;;;;4981925;28;20607;-79
2022/03/06 09:08:19;;;;;;;57.90;32.92;;;;;;;;;;4978740;28;20185;-78
2022/03/06 09:10:45;;;;;;;56.22;32.90;;;;;;;;;;4993734;28;20725;-79
2022/03/06 09:13:11;;;;;;;51.55;31.45;;;;;;;;;;4981172;28;20251;-80
2022/03/06 09:15:38;;;;;;;56.55;31.92;;;;;;;;;;4982155;28;20590;-80
2022/03/06 09:18:04;;;;;;;51.10;31.08;;;;;;;;;;4983989;28;20404;-80
2022/03/06 09:20:30;;;;;;;53.05;31.88;;;;;;;;;;4977913;28;20234;-80
2022/03/06 09:22:56;;;;;;;48.85;30.90;;;;;;;;;;4980107;28;20222;-79
2022/03/06 09:25:22;;;;;;;51.50;30.88;;;;;;;;;;4982503;28;20203;-79
2022/03/06 09:27:48;;;;;;;56.17;30.30;;;;;;;;;;4976650;28;20208;-78
2022/03/06 09:30:14;;;;;;;45.78;30.20;;;;;;;;;;4977376;28;20180;-78
2022/03/06 09:32:41;;;;;;;48.50;28.20;;;;;;;;;;4977807;28;20267;-79
2022/03/06 09:35:07;;;;;;;49.13;29.50;;;;;;;;;;4981047;28;20197;-78
2022/03/06 09:37:33;;;;;;;43.15;25.42;;;;;;;;;;4979591;28;20192;-78
2022/03/06 09:39:59;;;;;;;44.53;27.17;;;;;;;;;;4972600;28;20238;-78
2022/03/06 09:42:25;;;;;;;45.47;26.98;;;;;;;;;;4980312;28;20476;-79
2022/03/06 09:44:51;;;;;;;40.50;26.63;;;;;;;;;;4981252;28;20285;-78
2022/03/06 09:47:17;;;;;;;43.33;26.25;;;;;;;;;;4980739;28;20178;-78
2022/03/06 09:49:44;;;;;;;39.45;26.55;;;;;;;;;;4976736;28;20188;-78
2022/03/06 09:52:11;;;;;;;43.40;27.25;;;;;;;;;;4994841;28;20268;-79
2022/03/06 09:54:37;;;;;;;43.63;25.98;;;;;;;;;;4975183;28;20227;-79
2022/03/06 09:57:03;;;;;;;40.72;25.17;;;;;;;;;;4980889;28;20834;-79
2022/03/06 09:59:31;;;;;;;38.63;23.88;;;;;;;;;;4980872;28;20235;-81
2022/03/06 10:02:04;;;;;;;38.30;23.75;;;;;;;;;;4980824;28;20176;-79
2022/03/06 10:04:32;;;;;;;35.72;23.83;;;;;;;;;;4984058;28;20223;-79
2022/03/06 10:07:14;;;;;;;39.70;24.88;;;;;;;;;;4966258;28;20195;-79
2022/03/06 10:09:46;;;;;;;40.22;24.02;;;;;;;;;;4983191;28;20214;-77
2022/03/06 10:12:24;;;;;;;33.17;20.95;;;;;;;;;;4983382;28;20196;-79
2022/03/06 10:14:51;;;;;;;30.73;21.75;;;;;;;;;;4982105;28;20188;-80
2022/03/06 10:17:17;;;;;;;39.03;23.27;;;;;;;;;;4977983;28;20188;-79
2022/03/06 10:20:03;;;;;;;31.15;19.42;;;;;;;;;;5001244;28;20231;-79
2022/03/06 10:22:29;;;;;;;35.25;21.63;;;;;;;;;;4965046;28;20192;-79
2022/03/06 10:24:56;;;;;;;27.98;19.35;;;;;;;;;;4982163;28;20260;-79
2022/03/06 10:27:41;;;;;;;35.20;21.63;;;;;;;;;;4969354;28;20184;-79
2022/03/06 10:30:26;;;;;;;31.45;20.10;;;;;;;;;;5008372;28;20222;-79
2022/03/06 10:32:53;;;;;;;30.85;20.05;;;;;;;;;;4980140;28;20188;-78
2022/03/06 10:35:19;;;;;;;28.35;18.67;;;;;;;;;;4977826;28;20238;-79
2022/03/06 10:37:45;;;;;;;36.95;20.20;;;;;;;;;;4969770;28;20192;-79
2022/03/06 10:40:14;;;;;;;28.55;16.95;;;;;;;;;;4980347;28;20319;-77
2022/03/06 10:42:43;;;;;;;27.45;16.73;;;;;;;;;;4967637;28;20173;-77
2022/03/06 10:45:25;;;;;;;25.58;15.63;;;;;;;;;;4970133;28;20753;-78
2022/03/06 10:47:51;;;;;;;23.73;17.13;;;;;;;;;;5002786;28;20267;-78
2022/03/06 10:50:21;;;;;;;23.08;16.50;;;;;;;;;;5001616;28;20188;-78
2022/03/06 10:52:47;;;;;;;23.63;15.77;;;;;;;;;;4969589;28;20271;-77
2022/03/06 10:55:14;;;;;;;24.67;15.45;;;;;;;;;;4980719;28;20183;-77
2022/03/06 10:57:40;;;;;;;21.58;14.48;;;;;;;;;;4967898;28;20180;-77
2022/03/06 11:00:06;;;;;;;28.85;13.35;;;;;;;;;;4981510;28;20215;-76
2022/03/06 11:02:33;;;;;;;16.30;12.98;;;;;;;;;;4979664;28;20679;-78
2022/03/06 11:05:00;;;;;;;19.10;14.30;;;;;;;;;;4978314;28;20180;-77
2022/03/06 11:07:29;;;;;;;17.38;13.35;;;;;;;;;;4995285;28;20195;-77
2022/03/06 11:09:57;;;;;;;17.17;13.13;;;;;;;;;;4981786;28;20180;-77
2022/03/06 11:12:24;;;;;;;18.45;13.65;;;;;;;;;;4968290;28;20252;-77
2022/03/06 11:14:50;;;;;;;18.30;13.70;;;;;;;;;;4988079;28;20188;-77
2022/03/06 11:17:17;;;;;;;20.80;14.40;;;;;;;;;;4976962;28;20216;-78
2022/03/06 11:19:43;;;;;;;16.98;11.80;;;;;;;;;;4973484;28;20253;-78
2022/03/06 11:22:12;;;;;;;22.58;13.32;;;;;;;;;;4978307;28;20195;-77
2022/03/06 11:24:43;;;;;;;15.43;12.50;;;;;;;;;;4977104;28;20184;-77
2022/03/06 11:27:09;;;;;;;18.75;14.27;;;;;;;;;;4979776;28;20633;-78
2022/03/06 11:29:50;;;;;;;15.57;11.98;;;;;;;;;;4974275;28;20199;-77
2022/03/06 11:32:23;;;;;;;19.88;13.23;;;;;;;;;;4976983;28;20271;-77
2022/03/06 11:34:51;;;;;;;17.63;13.05;;;;;;;;;;4977588;28;20184;-76
2022/03/06 11:37:17;;;;;;;17.52;11.35;;;;;;;;;;4978134;28;20197;-78
2022/03/06 11:39:43;;;;;;;19.20;11.32;;;;;;;;;;4980405;28;20235;-77
2022/03/06 11:42:10;;;;;;;17.53;12.20;;;;;;;;;;4975814;28;20191;-77
2022/03/06 11:44:40;;;;;;;15.50;12.70;;;;;;;;;;4976811;28;20478;-77
2022/03/06 11:47:12;;;;;;;19.77;11.68;;;;;;;;;;4977918;28;20294;-78
2022/03/06 11:49:39;;;;;;;13.38;9.27;;;;;;;;;;4975419;28;20190;-78
2022/03/06 11:52:23;;;;;;;12.55;10.40;;;;;;;;;;4978758;28;20184;-78
2022/03/06 11:54:49;;;;;;;16.23;11.10;;;;;;;;;;4980417;28;20482;-77
2022/03/06 11:57:34;;;;;;;17.75;11.68;;;;;;;;;;4969524;28;20513;-78
2022/03/06 12:00:20;;;;;;;16.23;11.40;;;;;;;;;;4979036;28;20217;-78
2022/03/06 12:02:50;;;;;;;17.80;11.73;;;;;;;;;;4975109;28;20203;-78
2022/03/06 12:05:17;;;;;;;13.77;10.70;;;;;;;;;;4975005;28;20717;-78
2022/03/06 12:07:45;;;;;;;15.65;11.95;;;;;;;;;;4978119;28;20184;-78
2022/03/06 12:10:12;;;;;;;16.02;12.80;;;;;;;;;;4977161;28;20330;-77
2022/03/06 12:12:38;;;;;;;15.25;11.13;;;;;;;;;;4972602;28;20193;-77
2022/03/06 12:15:16;;;;;;;17.13;12.63;;;;;;;;;;4973953;28;20653;-76
2022/03/06 12:17:42;;;;;;;15.50;12.15;;;;;;;;;;5006818;28;20279;-77
2022/03/06 12:20:08;;;;;;;17.88;12.38;;;;;;;;;;4974126;28;20350;-78
2022/03/06 12:22:34;;;;;;;15.60;11.27;;;;;;;;;;4977602;28;21106;-78
2022/03/06 12:25:06;;;;;;;13.80;10.50;;;;;;;;;;4973875;28;20430;-77
2022/03/06 12:27:33;;;;;;;16.85;12.55;;;;;;;;;;4992231;28;20435;-78
2022/03/06 12:30:00;;;;;;;14.32;12.30;;;;;;;;;;4993813;28;20192;-77
2022/03/06 12:32:26;;;;;;;13.90;12.50;;;;;;;;;;4973774;28;20204;-77
2022/03/06 12:34:59;;;;;;;15.82;13.43;;;;;;;;;;4999910;28;20186;-79
2022/03/06 12:37:26;;;;;;;15.85;12.38;;;;;;;;;;5005014;28;20203;-78
2022/03/06 12:39:52;;;;;;;15.65;12.50;;;;;;;;;;4968046;28;20260;-77
2022/03/06 12:42:37;;;;;;;13.70;10.40;;;;;;;;;;4977502;28;20241;-78
2022/03/06 12:45:09;;;;;;;15.18;11.80;;;;;;;;;;4981517;28;20188;-78
2022/03/06 12:47:38;;;;;;;18.05;11.68;;;;;;;;;;4976051;28;20646;-77
2022/03/06 12:50:06;;;;;;;13.07;10.40;;;;;;;;;;5005229;28;20196;-76
2022/03/06 12:52:33;;;;;;;14.35;11.32;;;;;;;;;;4978586;28;20207;-77
2022/03/06 12:55:00;;;;;;;16.58;12.32;;;;;;;;;;4980923;28;20724;-77
2022/03/06 12:57:37;;;;;;;15.80;11.50;;;;;;;;;;4969388;28;20184;-77
2022/03/06 13:00:07;;;;;;;18.60;11.77;;;;;;;;;;4972370;28;20211;-77
2022/03/06 13:02:33;;;;;;;17.60;12.20;;;;;;;;;;4971144;28;20220;-78
2022/03/06 13:04:59;;;;;;;15.20;11.87;;;;;;;;;;4993838;28;20180;-77
2022/03/06 13:07:30;;;;;;;13.20;11.05;;;;;;;;;;4995274;28;20444;-77
2022/03/06 13:09:57;;;;;;;17.25;11.80;;;;;;;;;;4980902;28;20180;-77
2022/03/06 13:12:23;;;;;;;15.88;12.57;;;;;;;;;;4978496;28;20181;-77
2022/03/06 13:14:49;;;;;;;13.05;11.57;;;;;;;;;;4993021;28;20242;-78
2022/03/06 13:17:18;;;;;;;14.90;12.40;;;;;;;;;;4979828;28;20605;-78
2022/03/06 13:19:45;;;;;;;12.40;11.10;;;;;;;;;;4982849;28;20608;-77
2022/03/06 13:22:13;;;;;;;13.23;11.43;;;;;;;;;;4983350;28;20184;-77
2022/03/06 13:24:46;;;;;;;15.55;11.82;;;;;;;;;;4968035;28;20169;-77
2022/03/06 13:27:13;;;;;;;14.02;11.00;;;;;;;;;;4978866;28;20199;-77
2022/03/06 13:29:39;;;;;;;12.95;10.85;;;;;;;;;;4977310;28;20237;-77
2022/03/06 13:32:05;;;;;;;14.00;11.30;;;;;;;;;;4978869;28;20196;-77
2022/03/06 13:34:42;;;;;;;15.30;12.40;;;;;;;;;;4979910;28;20254;-78
2022/03/06 13:37:08;;;;;;;12.52;10.50;;;;;;;;;;4980373;28;20192;-77
2022/03/06 13:39:34;;;;;;;14.38;11.98;;;;;;;;;;4983639;28;20262;-77
2022/03/06 13:42:00;;;;;;;16.52;12.57;;;;;;;;;;4974309;28;20192;-76
2022/03/06 13:44:27;;;;;;;16.55;12.25;;;;;;;;;;4980467;28;20176;-77
2022/03/06 13:46:54;;;;;;;14.15;11.40;;;;;;;;;;4980180;28;20275;-78
2022/03/06 13:49:21;;;;;;;12.82;11.40;;;;;;;;;;4980744;28;20239;-78
2022/03/06 13:51:53;;;;;;;12.80;11.50;;;;;;;;;;4980796;28;20274;-78
2022/03/06 13:54:19;;;;;;;14.48;11.95;;;;;;;;;;4969820;28;20533;-77
2022/03/06 13:56:45;;;;;;;14.30;11.63;;;;;;;;;;4975167;28;20191;-77
2022/03/06 13:59:13;;;;;;;13.60;12.17;;;;;;;;;;4977369;28;20182;-77
2022/03/06 14:01:39;;;;;;;12.87;10.73;;;;;;;;;;4977628;28;20456;-77
2022/03/06 14:04:07;;;;;;;16.10;12.30;;;;;;;;;;4978411;28;20426;-77
2022/03/06 14:06:41;;;;;;;13.70;12.23;;;;;;;;;;4968149;28;20395;-77
2022/03/06 14:09:19;;;;;;;14.47;13.07;;;;;;;;;;4970590;28;20668;-77
2022/03/06 14:11:45;;;;;;;12.97;11.67;;;;;;;;;;4988229;28;20424;-78
2022/03/06 14:14:11;;;;;;;14.70;11.90;;;;;;;;;;4974908;28;20939;-78
2022/03/06 14:16:37;;;;;;;14.57;13.00;;;;;;;;;;4980519;28;20506;-77